Time;durP1;ratioP1;P1;durP2;ratioP2;P2;SDS_P1;SDS_P2;PMS_P1;PMS_P2;Temp;Humidity;BMP_temperature;BMP_pressure;BME280_temperature;BME280_humidity;BME280_pressure;Samples;Min_cycle;Max_cycle;Signal;HPM_P1;HPM_P2
2022/03/23 00:01:21;;;;;;;210.77;184.02;;;;;;;15.88;28.56;94799.75;5109836;27;20040;-60
2022/03/23 00:03:47;;;;;;;194.98;169.15;;;;;;;15.87;28.61;94798.97;5118672;27;20043;-60
2022/03/23 00:06:14;;;;;;;193.30;168.30;;;;;;;15.87;28.48;94798.97;5120944;27;20400;-60
2022/03/23 00:08:40;;;;;;;196.15;173.38;;;;;;;15.85;28.42;94790.53;5114650;27;20043;-60
2022/03/23 00:11:06;;;;;;;200.73;178.30;;;;;;;15.85;28.51;94787.84;5116763;27;20419;-60
2022/03/23 00:13:32;;;;;;;197.77;172.93;;;;;;;15.85;28.57;94793.25;5113723;27;20052;-60
2022/03/23 00:15:58;;;;;;;197.98;171.32;;;;;;;15.86;28.63;94783.22;5121566;27;20040;-60
2022/03/23 00:18:24;;;;;;;196.90;171.52;;;;;;;15.84;28.55;94786.34;5114492;27;20130;-61
2022/03/23 00:20:50;;;;;;;194.48;168.85;;;;;;;15.85;28.48;94784.38;5117544;27;20131;-60
2022/03/23 00:23:15;;;;;;;197.50;173.43;;;;;;;15.85;28.51;94785.16;5112715;27;20054;-60
2022/03/23 00:25:41;;;;;;;194.90;171.52;;;;;;;15.80;28.66;94777.56;5113879;27;20052;-60
2022/03/23 00:28:07;;;;;;;192.65;170.10;;;;;;;15.83;28.57;94782.13;5118152;27;20044;-60
2022/03/23 00:30:34;;;;;;;192.10;167.98;;;;;;;15.82;28.65;94783.28;5123906;27;20445;-60
2022/03/23 00:33:02;;;;;;;195.07;172.02;;;;;;;15.81;28.44;94787.16;5112841;27;20147;-60
2022/03/23 00:35:28;;;;;;;194.18;168.95;;;;;;;15.80;28.52;94780.25;5113848;27;20039;-60
2022/03/23 00:37:55;;;;;;;192.88;168.63;;;;;;;15.79;28.34;94784.88;5116567;27;20035;-59
2022/03/23 00:40:21;;;;;;;194.82;170.25;;;;;;;15.80;28.51;94788.34;5116583;27;20062;-60
2022/03/23 00:46:27;;;;;;;192.70;166.00;;;;;;;15.76;28.39;94774.19;5114899;27;20039;-60
2022/03/23 00:48:53;;;;;;;190.05;165.77;;;;;;;15.77;28.27;94781.84;5113779;27;20052;-60
2022/03/23 00:51:19;;;;;;;206.05;178.82;;;;;;;15.78;28.34;94785.31;5124093;27;20051;-60
2022/03/23 00:53:44;;;;;;;200.25;172.60;;;;;;;15.77;28.32;94781.84;5113511;27;20074;-59
2022/03/23 00:56:11;;;;;;;194.98;169.63;;;;;;;15.78;28.34;94785.31;5111735;27;20049;-60
2022/03/23 00:58:36;;;;;;;195.85;171.23;;;;;;;15.78;28.25;94785.31;5113478;27;20039;-60
2022/03/23 01:01:02;;;;;;;194.95;168.45;;;;;;;15.77;28.28;94781.09;5113042;27;20101;-59
2022/03/23 01:03:28;;;;;;;193.93;169.90;;;;;;;15.77;28.28;94791.88;5116810;27;20130;-60
2022/03/23 01:05:53;;;;;;;191.13;165.13;;;;;;;15.77;28.32;94783.78;5116858;27;20417;-60
2022/03/23 01:08:19;;;;;;;197.07;171.57;;;;;;;15.75;28.25;94786.16;5118118;27;20483;-60
2022/03/23 01:10:45;;;;;;;191.77;166.35;;;;;;;15.76;28.37;94783.03;5116176;27;20074;-60
2022/03/23 01:13:10;;;;;;;192.50;166.60;;;;;;;15.76;28.21;94774.94;5116402;27;20047;-60
2022/03/23 01:15:35;;;;;;;195.00;170.63;;;;;;;15.74;28.34;94774.59;5114031;27;20035;-61
2022/03/23 01:18:02;;;;;;;195.40;172.30;;;;;;;15.76;28.25;94776.88;5113102;27;20043;-60
2022/03/23 01:20:30;;;;;;;194.60;168.60;;;;;;;15.76;28.15;94779.56;5114432;27;20050;-60
2022/03/23 01:22:56;;;;;;;193.27;167.02;;;;;;;15.76;28.41;94777.63;5117532;27;20043;-60
2022/03/23 01:25:21;;;;;;;194.00;168.18;;;;;;;15.76;28.38;94777.63;5112271;27;20047;-61
2022/03/23 01:27:47;;;;;;;195.43;168.90;;;;;;;15.74;28.19;94771.91;5124692;27;20184;-59
2022/03/23 01:30:15;;;;;;;194.15;170.35;;;;;;;15.75;28.27;94769.97;5110053;27;20118;-60
2022/03/23 01:32:43;;;;;;;195.90;170.07;;;;;;;15.75;28.29;94768.03;5115842;27;20082;-60
2022/03/23 01:35:09;;;;;;;188.35;163.48;;;;;;;15.74;28.28;94768.44;5111448;27;20059;-60
2022/03/23 01:37:35;;;;;;;206.10;178.32;;;;;;;15.73;28.22;94767.69;5115590;27;20039;-59
2022/03/23 01:40:03;;;;;;;194.75;170.00;;;;;;;15.72;28.40;94770.81;5117032;27;20054;-59
2022/03/23 01:42:29;;;;;;;194.10;171.98;;;;;;;15.71;28.23;94772.75;5119438;27;20067;-59
2022/03/23 01:44:55;;;;;;;194.30;167.63;;;;;;;15.70;28.16;94779.31;5122334;27;20039;-60
2022/03/23 01:47:21;;;;;;;192.23;165.57;;;;;;;15.71;28.01;94770.06;5109328;27;20105;-60
2022/03/23 01:49:51;;;;;;;193.10;168.93;;;;;;;15.72;28.20;94774.25;5118338;27;20055;-59
2022/03/23 01:52:17;;;;;;;;;;;;;;;15.71;28.11;94770.06;5116138;27;20046;-60
2022/03/23 01:54:44;;;;;;;191.25;161.63;;;;;;;15.72;28.13;94768.13;5111076;27;20301;-60
2022/03/23 01:57:12;;;;;;;190.68;162.88;;;;;;;15.70;28.17;94762.38;5114670;27;20097;-59
2022/03/23 01:59:38;;;;;;;194.50;169.10;;;;;;;15.70;28.05;94759.69;5112006;27;20463;-60
2022/03/23 02:02:04;;;;;;;192.05;166.40;;;;;;;15.71;28.14;94763.91;5112892;27;20043;-60
2022/03/23 02:04:30;;;;;;;188.32;161.82;;;;;;;15.71;28.29;94761.97;5123861;27;20039;-60
2022/03/23 02:06:55;;;;;;;195.10;170.35;;;;;;;15.70;28.08;94762.38;5123320;27;20051;-60
2022/03/23 02:09:23;;;;;;;193.13;169.35;;;;;;;15.69;28.22;94769.72;5120283;27;20126;-60
2022/03/23 02:11:49;;;;;;;194.52;167.93;;;;;;;15.67;28.16;94761.28;5113006;27;20115;-60
2022/03/23 02:14:15;;;;;;;190.43;165.82;;;;;;;15.69;28.10;94766.25;5115232;27;20054;-60
2022/03/23 02:16:46;;;;;;;191.80;164.77;;;;;;;15.68;27.90;94765.50;5122722;27;20138;-60
2022/03/23 02:19:12;;;;;;;191.70;167.85;;;;;;;15.67;28.19;94763.22;5116323;27;20040;-60
2022/03/23 02:21:54;;;;;;;192.93;167.07;;;;;;;15.65;28.07;94758.25;5110794;27;20100;-60
2022/03/23 02:24:26;;;;;;;190.40;164.15;;;;;;;15.65;28.18;94758.25;5106785;27;20051;-60
2022/03/23 02:26:53;;;;;;;189.98;165.88;;;;;;;15.61;28.00;94754.88;5120612;27;20072;-60
2022/03/23 02:29:20;;;;;;;195.95;168.35;;;;;;;15.61;28.05;94754.09;5111346;27;20152;-60
2022/03/23 02:31:45;;;;;;;192.35;166.38;;;;;;;15.61;28.21;94756.81;5116660;27;20035;-60
2022/03/23 02:34:12;;;;;;;192.60;169.02;;;;;;;15.60;27.96;94764.13;5118048;27;20031;-60
2022/03/23 02:36:38;;;;;;;190.68;165.70;;;;;;;15.61;28.02;94754.09;5114426;27;20114;-61
2022/03/23 02:39:04;;;;;;;190.55;163.18;;;;;;;15.61;27.98;94760.25;5114442;27;20413;-60
2022/03/23 02:41:29;;;;;;;201.63;173.30;;;;;;;15.62;27.93;94759.09;5115650;27;20052;-60
2022/03/23 02:43:55;;;;;;;196.20;167.98;;;;;;;15.62;27.98;94759.09;5111705;27;20048;-59
2022/03/23 02:46:22;;;;;;;191.75;166.38;;;;;;;15.61;28.02;94765.66;5121512;27;20055;-60
2022/03/23 02:48:51;;;;;;;193.65;169.07;;;;;;;15.61;27.93;94756.81;5110693;27;20046;-60
2022/03/23 02:51:17;;;;;;;205.20;176.93;;;;;;;15.61;27.99;94762.97;5108639;27;20188;-60
2022/03/23 03:02:39;;;;;;;189.63;162.45;;;;;;;15.61;27.95;94757.56;5094492;28;20043;-60
2022/03/23 03:05:09;;;;;;;188.93;162.13;;;;;;;15.61;27.97;94760.25;5099693;28;20053;-60
2022/03/23 03:10:20;;;;;;;190.27;163.82;;;;;;;15.62;27.92;94759.09;5113116;27;20044;-60
2022/03/23 03:12:47;;;;;;;188.20;161.57;;;;;;;15.63;27.94;94762.53;5110652;27;20108;-59
2022/03/23 03:15:14;;;;;;;187.45;162.88;;;;;;;15.61;27.87;94765.66;5110710;27;20036;-60
2022/03/23 03:17:41;;;;;;;193.23;168.60;;;;;;;15.62;27.86;94764.47;5118506;27;20071;-60
2022/03/23 03:20:08;;;;;;;195.05;169.32;;;;;;;15.63;27.90;94763.28;5114005;27;20071;-60
2022/03/23 03:22:35;;;;;;;191.85;166.40;;;;;;;15.62;27.99;94759.09;5115952;27;20039;-60
2022/03/23 03:25:01;;;;;;;189.30;163.30;;;;;;;15.64;27.85;94762.13;5118547;27;20134;-60
2022/03/23 03:27:27;;;;;;;189.88;166.32;;;;;;;15.64;27.98;94764.81;5114960;27;20104;-60
2022/03/23 03:29:52;;;;;;;188.25;162.88;;;;;;;15.64;27.80;94766.75;5115396;27;20046;-60
2022/03/23 03:32:37;;;;;;;190.27;164.18;;;;;;;15.63;28.08;94762.53;5111869;27;20049;-60
2022/03/23 03:35:03;;;;;;;202.50;173.93;;;;;;;15.62;27.95;94763.72;5112593;27;20495;-60
2022/03/23 03:37:29;;;;;;;191.43;167.57;;;;;;;15.61;27.95;94770.28;5113832;27;20039;-60
2022/03/23 03:39:55;;;;;;;187.07;160.20;;;;;;;15.59;27.92;94768.03;5112959;27;20032;-60
2022/03/23 03:42:20;;;;;;;191.55;165.45;;;;;;;15.60;27.96;94776.88;5105442;28;20055;-60
2022/03/23 03:44:46;;;;;;;185.65;161.63;;;;;;;15.62;27.94;94775.25;5124658;27;20431;-60
2022/03/23 03:47:11;;;;;;;188.60;162.80;;;;;;;15.59;28.02;94775.38;5118817;27;20069;-60
2022/03/23 03:49:38;;;;;;;188.85;163.05;;;;;;;15.58;27.92;94777.31;5124780;27;20058;-59
2022/03/23 03:52:05;;;;;;;202.98;175.20;;;;;;;15.59;27.89;94778.06;5119960;27;20044;-60
2022/03/23 03:54:31;;;;;;;190.75;165.45;;;;;;;15.59;27.82;94775.38;5106377;27;20115;-60
2022/03/23 03:56:56;;;;;;;191.88;167.30;;;;;;;15.59;27.55;94770.72;5109313;27;20108;-59
2022/03/23 03:59:22;;;;;;;191.55;165.57;;;;;;;15.59;27.89;94780.75;5112631;27;20063;-59
2022/03/23 04:01:48;;;;;;;193.25;165.73;;;;;;;15.57;27.82;94783.88;5105174;27;20475;-60
2022/03/23 04:04:14;;;;;;;189.95;164.25;;;;;;;15.58;28.05;94776.53;5119918;27;20035;-59
2022/03/23 04:06:40;;;;;;;188.15;161.35;;;;;;;15.58;27.77;94773.84;5116922;27;20067;-60
2022/03/23 04:09:06;;;;;;;190.25;165.43;;;;;;;15.59;27.80;94775.38;5112383;27;20506;-60
2022/03/23 04:11:32;;;;;;;191.02;165.63;;;;;;;15.58;27.86;94785.38;5115508;27;20039;-60
2022/03/23 04:13:57;;;;;;;188.13;163.38;;;;;;;15.58;27.81;94781.94;5116539;27;20056;-60
2022/03/23 04:16:23;;;;;;;187.73;159.07;;;;;;;15.57;27.84;94780.41;5121006;27;20090;-60
2022/03/23 04:18:48;;;;;;;191.73;166.57;;;;;;;15.56;27.80;94782.31;5117100;27;20027;-60
2022/03/23 04:21:14;;;;;;;198.02;169.02;;;;;;;15.58;27.91;94790.78;5116650;27;20093;-60
2022/03/23 04:23:40;;;;;;;191.40;166.77;;;;;;;15.56;27.74;94795.81;5106450;28;20075;-60
2022/03/23 04:26:05;;;;;;;189.38;163.15;;;;;;;15.56;27.73;94800.44;5114938;27;20058;-60
2022/03/23 04:28:31;;;;;;;191.05;164.95;;;;;;;15.56;27.75;94801.19;5108492;27;20052;-60
2022/03/23 04:30:57;;;;;;;190.50;166.90;;;;;;;15.56;27.82;94795.81;5105835;27;20039;-60
2022/03/23 04:33:23;;;;;;;188.43;163.40;;;;;;;15.55;27.90;94798.91;5124043;27;20057;-59
2022/03/23 04:35:48;;;;;;;189.32;163.50;;;;;;;15.53;27.76;94807.44;5120577;27;20031;-60
2022/03/23 04:38:14;;;;;;;186.10;162.52;;;;;;;15.54;27.77;94811.63;5116066;27;20200;-60
2022/03/23 04:40:41;;;;;;;190.10;165.70;;;;;;;15.54;27.89;94813.56;5111705;27;20114;-60
2022/03/23 04:43:06;;;;;;;191.50;165.35;;;;;;;15.53;27.82;94809.34;5114094;27;20425;-60
2022/03/23 04:45:32;;;;;;;188.27;163.90;;;;;;;15.52;27.78;94814.00;5114018;27;20091;-60
2022/03/23 04:47:57;;;;;;;188.63;161.90;;;;;;;15.51;27.82;94817.09;5116931;27;20063;-60
2022/03/23 04:50:23;;;;;;;189.15;162.48;;;;;;;15.49;27.95;94812.88;5113864;27;20073;-60
2022/03/23 04:52:52;;;;;;;188.73;160.90;;;;;;;15.51;27.88;94817.09;5119989;27;20074;-60
2022/03/23 04:55:18;;;;;;;193.97;166.00;;;;;;;15.51;27.70;94819.81;5128480;27;20095;-60
2022/03/23 04:57:44;;;;;;;190.80;164.43;;;;;;;15.51;27.82;94822.50;5123003;27;20301;-60
2022/03/23 05:00:13;;;;;;;191.57;164.20;;;;;;;15.49;27.79;94829.06;5125098;27;20145;-61
2022/03/23 05:02:40;;;;;;;188.55;159.73;;;;;;;15.49;27.86;94828.31;5110585;27;20047;-60
2022/03/23 05:05:07;;;;;;;188.32;162.98;;;;;;;15.48;27.70;94819.47;5116060;27;20055;-59
2022/03/23 05:07:32;;;;;;;191.20;162.95;;;;;;;15.52;27.63;94829.41;5114406;27;20043;-62
2022/03/23 05:09:59;;;;;;;189.50;162.85;;;;;;;15.52;27.69;94824.78;5120051;27;20047;-62
2022/03/23 05:12:24;;;;;;;188.35;162.30;;;;;;;15.52;27.76;94824.78;5110194;27;20051;-62
2022/03/23 05:14:50;;;;;;;193.82;164.80;;;;;;;15.54;27.66;94830.50;5118527;27;20646;-61
2022/03/23 05:17:15;;;;;;;189.23;161.63;;;;;;;15.55;27.64;94833.97;5116007;27;20055;-61
2022/03/23 05:19:41;;;;;;;187.52;162.70;;;;;;;15.57;27.69;94834.34;5114906;27;20034;-59
2022/03/23 05:22:06;;;;;;;193.20;167.35;;;;;;;15.57;27.77;94832.41;5114077;27;20179;-60
2022/03/23 05:24:32;;;;;;;203.05;173.93;;;;;;;15.56;27.67;94836.25;5112973;27;20047;-66
2022/03/23 05:26:58;;;;;;;191.68;166.35;;;;;;;15.59;27.62;94832.75;5120171;27;20054;-62
2022/03/23 05:29:23;;;;;;;186.80;162.23;;;;;;;15.61;27.66;94837.69;5114621;27;20055;-61
2022/03/23 05:31:49;;;;;;;188.18;163.32;;;;;;;15.61;27.63;94837.69;5117605;27;20047;-61
2022/03/23 05:34:15;;;;;;;191.88;165.30;;;;;;;15.63;27.74;94840.72;5119267;27;20276;-61
2022/03/23 05:36:41;;;;;;;187.32;162.18;;;;;;;15.65;27.63;94843.78;5116417;27;20543;-61
2022/03/23 05:39:07;;;;;;;194.38;166.05;;;;;;;15.65;27.70;94841.06;5115181;27;20058;-60
2022/03/23 05:41:32;;;;;;;192.63;166.95;;;;;;;15.65;27.56;94831.03;5111269;27;20047;-60
2022/03/23 05:43:58;;;;;;;191.90;166.73;;;;;;;15.65;27.89;94841.84;5122726;27;20479;-61
2022/03/23 05:46:23;;;;;;;191.63;165.90;;;;;;;15.66;27.64;94835.25;5124504;27;20046;-61
2022/03/23 05:48:49;;;;;;;192.80;166.30;;;;;;;15.70;27.70;94835.19;5120101;27;20043;-60
2022/03/23 05:51:15;;;;;;;196.52;167.50;;;;;;;15.72;27.70;94833.59;5126745;27;20119;-60
2022/03/23 05:53:41;;;;;;;187.93;162.30;;;;;;;15.73;27.79;94839.75;5111646;27;20048;-61
2022/03/23 05:56:07;;;;;;;188.05;162.35;;;;;;;15.73;27.83;94843.19;5111526;27;20184;-61
2022/03/23 05:58:34;;;;;;;187.65;162.38;;;;;;;15.75;27.83;94834.69;5118415;27;20099;-61
2022/03/23 06:01:02;;;;;;;193.02;167.70;;;;;;;15.75;28.13;94834.69;5117922;27;20495;-61
2022/03/23 06:03:28;;;;;;;190.93;165.13;;;;;;;15.76;28.01;94838.91;5118505;27;20065;-60
2022/03/23 06:05:53;;;;;;;188.43;163.23;;;;;;;15.75;28.05;94830.06;5106945;28;20040;-61
2022/03/23 06:08:20;;;;;;;185.32;158.77;;;;;;;15.76;28.00;94836.22;5111610;27;20448;-61
2022/03/23 06:10:46;;;;;;;192.10;167.23;;;;;;;15.73;28.17;94837.81;5127557;27;20499;-60
2022/03/23 06:13:11;;;;;;;193.23;167.95;;;;;;;15.74;28.06;94842.03;5109728;27;20047;-61
2022/03/23 06:15:37;;;;;;;189.82;164.90;;;;;;;15.74;27.47;94839.31;5110983;27;20058;-59
2022/03/23 06:18:02;;;;;;;189.48;164.23;;;;;;;15.75;28.08;94848.19;5115229;27;20050;-60
2022/03/23 06:20:28;;;;;;;192.20;165.38;;;;;;;15.75;28.07;94843.53;5121431;27;20035;-61
2022/03/23 06:22:54;;;;;;;188.85;163.77;;;;;;;15.74;28.07;94839.31;5118786;27;20126;-61
2022/03/23 06:25:19;;;;;;;187.55;164.27;;;;;;;15.77;27.92;94840.44;5108664;27;20213;-60
2022/03/23 06:27:45;;;;;;;188.18;162.65;;;;;;;15.78;27.95;94844.63;5120888;27;20515;-61
2022/03/23 06:30:11;;;;;;;191.15;166.93;;;;;;;15.78;27.92;94848.09;5119641;27;20138;-61
2022/03/23 06:32:36;;;;;;;190.35;164.30;;;;;;;15.77;27.85;94846.59;5118395;27;20074;-61
2022/03/23 06:35:03;;;;;;;199.68;170.95;;;;;;;15.78;27.80;94847.34;5113011;27;20050;-60
2022/03/23 06:37:30;;;;;;;189.38;164.55;;;;;;;15.78;28.02;94847.34;5120520;27;20070;-61
2022/03/23 06:39:56;;;;;;;187.70;164.45;;;;;;;15.77;27.89;94854.66;5119116;27;20415;-61
2022/03/23 06:42:22;;;;;;;188.93;164.55;;;;;;;15.80;27.86;94850.38;5112675;27;20047;-61
2022/03/23 06:44:47;;;;;;;189.63;164.35;;;;;;;15.80;27.86;94853.06;5119369;27;20046;-60
2022/03/23 06:47:13;;;;;;;189.88;164.13;;;;;;;15.81;27.99;94858.06;5120788;27;20107;-61
2022/03/23 06:49:38;;;;;;;187.85;162.90;;;;;;;15.80;27.79;94859.22;5126482;27;20189;-63
2022/03/23 06:52:04;;;;;;;202.25;175.18;;;;;;;15.83;28.12;94863.03;5115421;27;20061;-62
2022/03/23 06:54:30;;;;;;;191.65;164.43;;;;;;;15.81;27.94;94858.06;5115133;27;20043;-61
2022/03/23 06:56:55;;;;;;;189.88;165.30;;;;;;;15.84;28.04;94863.78;5121865;27;20454;-61
2022/03/23 06:59:21;;;;;;;187.85;164.38;;;;;;;15.84;28.10;94859.16;5107535;28;20539;-62
2022/03/23 07:01:47;;;;;;;189.30;164.20;;;;;;;15.86;27.85;94869.53;5115571;27;20051;-62
2022/03/23 07:04:13;;;;;;;183.07;160.05;;;;;;;15.84;27.75;94869.94;5119105;27;20081;-61
2022/03/23 07:06:38;;;;;;;191.43;166.43;;;;;;;15.77;27.48;94868.16;5116274;27;20043;-62
2022/03/23 07:11:48;;;;;;;192.20;167.00;;;;;;;15.69;27.24;94866.03;5118280;27;20488;-61
2022/03/23 07:14:14;;;;;;;190.77;162.73;;;;;;;15.67;27.24;94871.06;5115216;27;20114;-62
2022/03/23 07:16:41;;;;;;;182.50;157.38;;;;;;;15.64;26.81;94871.91;5110236;27;20055;-62
2022/03/23 07:19:07;;;;;;;190.13;165.52;;;;;;;15.62;27.06;94869.63;5109838;27;20039;-62
2022/03/23 07:21:32;;;;;;;191.68;166.77;;;;;;;15.60;27.08;94866.59;5110472;27;20055;-61
2022/03/23 07:23:58;;;;;;;194.35;167.90;;;;;;;15.58;27.23;94870.91;5118310;27;20500;-63
2022/03/23 07:26:23;;;;;;;193.30;166.57;;;;;;;15.56;27.15;94874.00;5109452;27;20047;-62
2022/03/23 07:28:49;;;;;;;188.18;162.80;;;;;;;15.53;27.16;94879.44;5123079;27;20042;-62
2022/03/23 07:31:15;;;;;;;199.73;170.45;;;;;;;15.52;27.21;94876.00;5127036;27;20134;-62
2022/03/23 07:33:40;;;;;;;197.82;169.85;;;;;;;15.54;27.17;94886.38;5123062;27;20043;-61
2022/03/23 07:36:06;;;;;;;191.02;163.18;;;;;;;15.55;27.20;94885.19;5115637;27;20032;-62
2022/03/23 07:38:32;;;;;;;189.75;164.02;;;;;;;15.56;27.20;94881.31;5111736;27;20043;-62
2022/03/23 07:40:58;;;;;;;189.77;161.32;;;;;;;15.58;26.68;94889.78;5120063;27;20100;-62
2022/03/23 07:43:23;;;;;;;189.70;165.05;;;;;;;15.58;27.07;94884.38;5109010;27;20040;-62
2022/03/23 07:45:49;;;;;;;197.77;166.38;;;;;;;15.59;27.06;94883.22;5123176;27;20047;-61
2022/03/23 07:48:16;;;;;;;190.68;164.55;;;;;;;15.61;27.32;94886.22;5120674;28;20043;-62
2022/03/23 07:50:42;;;;;;;188.57;161.10;;;;;;;15.59;27.16;94883.97;5111622;27;20043;-62
2022/03/23 07:53:08;;;;;;;187.63;161.50;;;;;;;15.61;27.12;94881.59;5124485;27;20459;-62
2022/03/23 07:55:33;;;;;;;190.50;164.77;;;;;;;15.61;27.23;94886.97;5117535;27;20043;-62
2022/03/23 07:57:59;;;;;;;191.23;163.57;;;;;;;15.62;27.18;94890.44;5111739;27;20499;-61
2022/03/23 08:00:24;;;;;;;185.45;162.10;;;;;;;15.67;27.16;94889.94;5111961;27;20051;-63
2022/03/23 08:02:50;;;;;;;199.27;171.95;;;;;;;15.71;27.17;94886.00;5106773;28;20039;-60
2022/03/23 08:05:16;;;;;;;194.50;167.27;;;;;;;15.74;27.24;94889.81;5112009;27;20116;-62
2022/03/23 08:07:42;;;;;;;190.18;163.85;;;;;;;15.72;27.10;94882.13;5116146;27;20039;-62
2022/03/23 08:10:08;;;;;;;189.02;164.85;;;;;;;15.74;27.36;94884.41;5124426;27;20082;-62
2022/03/23 08:12:35;;;;;;;189.90;164.70;;;;;;;15.74;27.31;94887.09;5122650;27;20039;-62
2022/03/23 08:15:00;;;;;;;188.48;163.43;;;;;;;15.73;27.40;94891.75;5126106;27;20083;-62
2022/03/23 08:17:26;;;;;;;185.95;162.23;;;;;;;15.73;27.35;94899.06;5126975;27;20168;-62
2022/03/23 08:22:35;;;;;;;185.52;160.30;;;;;;;15.74;27.75;94887.88;5112974;27;20070;-62
2022/03/23 08:25:01;;;;;;;184.55;160.90;;;;;;;15.72;27.48;94900.25;5121488;27;20669;-62
2022/03/23 08:27:27;;;;;;;214.02;184.68;;;;;;;15.71;27.23;94893.34;5124867;27;20171;-62
2022/03/23 08:29:53;;;;;;;186.15;161.38;;;;;;;15.67;27.44;94888.00;5115127;27;20119;-62
2022/03/23 08:32:18;;;;;;;196.55;170.02;;;;;;;15.65;27.40;94895.75;5118262;27;20043;-62
2022/03/23 08:34:44;;;;;;;191.25;166.43;;;;;;;15.64;27.22;94896.19;5118166;27;20116;-63
2022/03/23 08:37:09;;;;;;;190.70;165.68;;;;;;;15.64;27.13;94896.19;5123097;27;20491;-63
2022/03/23 08:39:35;;;;;;;189.57;163.25;;;;;;;15.60;27.02;94888.16;5124961;27;20109;-62
2022/03/23 08:42:01;;;;;;;193.75;168.02;;;;;;;15.59;27.02;94883.97;5121536;27;20058;-62
2022/03/23 08:44:27;;;;;;;189.70;165.13;;;;;;;15.58;26.88;94895.16;5122112;27;20035;-63
2022/03/23 08:46:52;;;;;;;199.15;172.27;;;;;;;15.56;26.70;94895.56;5120400;27;20039;-63
2022/03/23 08:49:17;;;;;;;184.85;159.48;;;;;;;15.57;26.81;94893.66;5114284;27;20144;-63
2022/03/23 08:51:43;;;;;;;190.55;165.55;;;;;;;15.62;26.76;94895.81;5119449;27;20122;-62
2022/03/23 08:54:08;;;;;;;189.20;161.00;;;;;;;15.58;26.76;94895.94;5118969;27;20036;-62
2022/03/23 08:56:34;;;;;;;189.57;162.82;;;;;;;15.56;26.89;94886.72;5121458;27;20091;-62
2022/03/23 08:59:00;;;;;;;187.68;162.55;;;;;;;15.60;26.55;94892.81;5127063;27;20538;-63
2022/03/23 09:01:25;;;;;;;200.63;172.43;;;;;;;15.55;26.46;94895.97;5128544;27;20051;-62
2022/03/23 09:03:53;;;;;;;190.40;165.82;;;;;;;15.55;26.56;94896.72;5110849;27;20502;-61
2022/03/23 09:06:19;;;;;;;190.80;162.77;;;;;;;15.54;26.33;94899.84;5112925;27;20473;-62
2022/03/23 09:08:44;;;;;;;188.85;163.18;;;;;;;15.53;26.33;94895.63;5122699;27;20035;-63
2022/03/23 09:11:11;;;;;;;195.68;167.38;;;;;;;15.53;26.49;94898.31;5124150;27;20057;-61
2022/03/23 09:13:38;;;;;;;190.60;161.90;;;;;;;15.50;26.37;94891.81;5124637;27;20043;-62
2022/03/23 09:16:04;;;;;;;200.05;170.48;;;;;;;15.51;26.52;94895.28;5106268;27;20047;-63
2022/03/23 09:18:30;;;;;;;191.63;161.40;;;;;;;15.53;26.27;94896.38;5115657;27;20411;-62
2022/03/23 09:20:56;;;;;;;183.98;157.15;;;;;;;15.49;26.40;94891.06;5120273;27;20047;-61
2022/03/23 09:23:21;;;;;;;199.60;168.50;;;;;;;15.49;26.33;94890.31;5126146;27;20491;-61
2022/03/23 09:25:49;;;;;;;188.30;162.63;;;;;;;15.52;26.58;94888.72;5116461;27;20066;-61
2022/03/23 09:28:15;;;;;;;195.13;165.40;;;;;;;15.51;26.33;94897.97;5116085;27;20035;-62
2022/03/23 09:30:40;;;;;;;189.30;159.73;;;;;;;15.47;26.42;94895.34;5119192;27;20400;-61
2022/03/23 09:33:07;;;;;;;190.38;161.00;;;;;;;15.47;26.29;94890.72;5127080;27;20074;-62
2022/03/23 09:35:32;;;;;;;187.45;159.20;;;;;;;15.48;26.53;94892.25;5117833;27;20063;-62
2022/03/23 09:37:59;;;;;;;187.45;160.20;;;;;;;15.50;26.40;94894.53;5118101;27;20101;-62
2022/03/23 09:40:31;;;;;;;189.32;161.73;;;;;;;15.52;26.73;94884.09;5123196;27;21198;-62
2022/03/23 09:43:03;;;;;;;190.25;162.40;;;;;;;15.47;26.39;94887.25;5111199;27;20388;-62
2022/03/23 09:47:55;;;;;;;189.63;162.93;;;;;;;15.51;26.71;94881.81;5118394;27;20478;-62
2022/03/23 09:50:21;;;;;;;191.25;163.98;;;;;;;15.53;26.55;94885.59;5110813;27;20055;-61
2022/03/23 09:52:47;;;;;;;191.75;163.15;;;;;;;15.58;26.43;94879.75;5119897;27;20063;-62
2022/03/23 09:55:12;;;;;;;191.40;163.85;;;;;;;15.58;26.47;94881.69;5120648;27;20042;-62
2022/03/23 09:57:38;;;;;;;199.27;168.60;;;;;;;15.58;26.50;94877.06;5117579;27;20123;-61
2022/03/23 10:00:08;;;;;;;189.65;161.65;;;;;;;15.62;26.61;94882.34;5120091;27;20054;-62
2022/03/23 10:02:57;;;;;;;195.20;167.45;;;;;;;15.58;26.43;94870.91;5112856;27;20107;-62
2022/03/23 10:05:53;;;;;;;191.00;160.93;;;;;;;15.64;26.66;94875.38;5119582;27;20046;-61
2022/03/23 10:08:47;;;;;;;192.60;162.50;;;;;;;15.60;26.69;94869.28;5115670;27;20043;-61
2022/03/23 10:11:18;;;;;;;191.85;162.05;;;;;;;15.58;26.98;94876.31;5116326;27;20737;-60
2022/03/23 10:14:15;;;;;;;190.77;159.80;;;;;;;15.60;26.76;94869.28;5128992;27;20047;-62
2022/03/23 10:17:08;;;;;;;191.82;160.82;;;;;;;15.61;26.72;94868.09;5109203;27;20240;-62
2022/03/23 10:19:40;;;;;;;188.38;159.25;;;;;;;15.63;26.73;94865.75;5108930;27;20188;-62
2022/03/23 10:22:08;;;;;;;193.57;162.25;;;;;;;15.65;26.84;94863.41;5107526;27;20056;-62
2022/03/23 10:24:35;;;;;;;192.35;166.98;;;;;;;15.65;26.68;94865.34;5121589;27;20035;-62
2022/03/23 10:27:08;;;;;;;191.25;166.63;;;;;;;15.65;26.86;94863.41;5124311;27;20432;-61
2022/03/23 10:29:40;;;;;;;197.13;169.82;;;;;;;15.64;26.62;94856.50;5112449;27;20641;-62
2022/03/23 10:32:09;;;;;;;192.40;164.13;;;;;;;15.59;26.67;94859.69;5113021;27;20054;-62
2022/03/23 10:34:41;;;;;;;186.07;160.97;;;;;;;15.60;26.83;94861.19;5123866;27;20035;-62
2022/03/23 10:37:07;;;;;;;190.82;164.13;;;;;;;15.62;26.86;94858.09;5125332;27;20091;-61
2022/03/23 10:39:33;;;;;;;193.02;165.25;;;;;;;15.66;26.66;94866.84;5123021;27;20047;-61
2022/03/23 10:42:14;;;;;;;201.35;173.77;;;;;;;15.64;26.76;94861.13;5117483;27;20125;-62
2022/03/23 10:44:40;;;;;;;190.07;163.80;;;;;;;15.64;26.83;94855.72;5115271;27;20106;-62
2022/03/23 10:47:06;;;;;;;194.98;168.00;;;;;;;15.65;26.75;94851.84;5120691;27;20073;-61
2022/03/23 10:49:33;;;;;;;197.55;171.50;;;;;;;15.66;26.84;94845.28;5120573;27;20036;-60
2022/03/23 10:52:17;;;;;;;192.70;163.52;;;;;;;15.71;26.97;94845.56;5109197;27;20057;-61
2022/03/23 10:54:56;;;;;;;190.43;164.40;;;;;;;15.75;27.00;94845.47;5115256;27;20047;-60
2022/03/23 10:57:55;;;;;;;189.65;163.88;;;;;;;15.73;27.20;94842.44;5125651;27;20059;-62
2022/03/23 11:00:31;;;;;;;191.07;161.10;;;;;;;15.75;27.11;94840.09;5101353;27;20047;-61
2022/03/23 11:02:57;;;;;;;186.23;158.73;;;;;;;15.75;27.04;94830.06;5120058;27;20444;-61
2022/03/23 11:05:32;;;;;;;188.35;162.80;;;;;;;15.73;26.92;94832.41;5118030;27;20400;-60
2022/03/23 11:08:06;;;;;;;191.35;165.18;;;;;;;15.72;26.78;94840.91;5123169;27;20054;-60
2022/03/23 11:16:29;;;;;;;186.07;159.45;;;;;;;15.73;26.96;94827.03;5117196;27;20043;-61
2022/03/23 11:19:16;;;;;;;188.18;163.70;;;;;;;15.74;26.79;94819.69;5108027;27;20051;-61
2022/03/23 11:22:02;;;;;;;187.68;163.40;;;;;;;15.75;26.75;94816.56;5116033;27;20051;-60
2022/03/23 11:24:37;;;;;;;201.02;170.82;;;;;;;15.78;26.82;94820.38;5121204;27;20061;-61
2022/03/23 11:27:06;;;;;;;190.43;164.40;;;;;;;15.77;26.72;94813.47;5116443;27;20046;-61
2022/03/23 11:29:32;;;;;;;188.23;161.40;;;;;;;15.73;26.76;94812.78;5118099;27;20051;-61
2022/03/23 11:32:04;;;;;;;192.68;165.90;;;;;;;15.66;26.97;94804.84;5122983;27;20044;-61